Terminal Aerodrome Forecast
Issued by NWS

Home | Current Version | Previous Version | Text Only | Print | Product List | Glossary On
Versions: 1 2 3 4 5 6 7 8 9 10 11 12 13 14 15 16 17 18 19 20 21 22 23 24 25 26 27 28 29 30
000
FTUS44 KOUN 012330
TAFHBR
TAF
KHBR 012330Z 0200/0224 17020G27KT P6SM SCT050
     FM020600 19017KT P6SM SCT250
     FM020900 26010KT P6SM SCT250
     FM021200 04012KT P6SM SCT015
     FM022000 21010KT P6SM SCT050=

USA.gov is the U.S. government's official web portal to all federal, state and local government web resources and services.